Time;durP1;ratioP1;P1;durP2;ratioP2;P2;SDS_P1;SDS_P2;PMS_P1;PMS_P2;Temp;Humidity;BMP_temperature;BMP_pressure;BME280_temperature;BME280_humidity;BME280_pressure;Samples;Min_cycle;Max_cycle;Signal;HPM_P1;HPM_P2
2023/05/14 00:01:24;;;;;;;12.10;11.10;;;10.20;1.00;;;;;;5073908;28;20504;-74
2023/05/14 00:03:50;;;;;;;10.87;9.83;;;10.20;1.00;;;;;;5074163;28;20190;-74
2023/05/14 00:06:16;;;;;;;11.83;10.73;;;10.20;1.00;;;;;;5080902;28;20177;-75
2023/05/14 00:08:41;;;;;;;9.07;8.10;;;10.20;1.00;;;;;;5094295;28;20177;-72
2023/05/14 00:11:07;;;;;;;10.73;9.73;;;10.20;1.00;;;;;;5093413;28;20644;-73
2023/05/14 00:13:34;;;;;;;10.77;9.67;;;10.10;1.00;;;;;;5094363;28;20196;-75
2023/05/14 00:16:00;;;;;;;10.93;9.87;;;10.10;1.00;;;;;;5093371;28;20377;-71
2023/05/14 00:18:25;;;;;;;12.43;10.00;;;10.10;1.00;;;;;;5083086;28;20470;-73
2023/05/14 00:20:53;;;;;;;11.80;9.70;;;10.00;1.00;;;;;;5073032;28;20185;-75
2023/05/14 00:23:20;;;;;;;10.90;9.77;;;9.90;1.00;;;;;;5073635;28;20198;-69
2023/05/14 00:25:46;;;;;;;10.73;9.63;;;9.80;1.00;;;;;;5073795;28;20871;-73
2023/05/14 00:28:11;;;;;;;12.30;9.83;;;9.80;1.00;;;;;;5073885;28;20371;-75
2023/05/14 00:30:38;;;;;;;11.50;10.40;;;9.80;1.00;;;;;;5072788;28;20527;-75
2023/05/14 00:33:04;;;;;;;10.80;9.80;;;9.80;1.00;;;;;;5073270;28;20550;-73
2023/05/14 00:35:32;;;;;;;10.87;9.80;;;9.70;1.00;;;;;;5073828;28;20769;-71
2023/05/14 00:37:58;;;;;;;12.23;11.13;;;9.70;1.00;;;;;;5073599;28;20375;-72
2023/05/14 00:40:25;;;;;;;11.97;10.20;;;9.70;1.00;;;;;;5072678;28;21119;-75
2023/05/14 00:42:51;;;;;;;9.93;9.03;;;9.70;1.00;;;;;;5073432;28;20643;-71
2023/05/14 00:45:17;;;;;;;12.40;9.93;;;9.70;1.00;;;;;;5073366;28;20419;-74
2023/05/14 00:47:43;;;;;;;10.93;9.70;;;9.70;1.00;;;;;;5072121;28;20925;-74
2023/05/14 00:50:10;;;;;;;11.50;10.43;;;9.70;1.00;;;;;;5072619;28;20319;-72
2023/05/14 00:52:37;;;;;;;11.47;10.47;;;9.70;1.00;;;;;;5073977;28;20196;-71
2023/05/14 00:55:06;;;;;;;9.93;9.03;;;9.70;1.00;;;;;;5072077;28;20878;-73
2023/05/14 00:57:33;;;;;;;11.37;9.37;;;9.70;1.00;;;;;;5073469;28;20473;-74
2023/05/14 00:59:59;;;;;;;9.50;8.70;;;9.70;1.00;;;;;;5072991;28;20379;-71
2023/05/14 01:02:25;;;;;;;10.27;9.40;;;9.70;1.00;;;;;;5072522;28;20456;-72
2023/05/14 01:04:51;;;;;;;10.30;9.30;;;9.70;1.00;;;;;;5073227;28;20410;-74
2023/05/14 01:07:26;;;;;;;11.47;8.87;;;9.70;1.00;;;;;;5089494;28;20215;-74
2023/05/14 01:09:54;;;;;;;10.47;9.43;;;9.70;1.00;;;;;;5078790;28;20378;-76
2023/05/14 01:12:32;;;;;;;9.73;8.93;;;9.70;1.00;;;;;;5071663;28;20972;-74
2023/05/14 01:15:03;;;;;;;10.20;9.33;;;9.70;1.00;;;;;;5073096;28;20375;-74
2023/05/14 01:17:35;;;;;;;10.00;9.20;;;9.70;1.00;;;;;;5073089;28;20412;-72
2023/05/14 01:20:01;;;;;;;10.30;9.40;;;9.70;1.00;;;;;;5072677;28;20381;-75
2023/05/14 01:22:26;;;;;;;9.00;8.27;;;9.60;1.00;;;;;;5071003;28;20406;-72
2023/05/14 01:24:52;;;;;;;9.97;9.10;;;9.60;1.00;;;;;;5072941;28;20948;-74
2023/05/14 01:27:44;;;;;;;9.13;8.30;;;9.60;1.00;;;;;;5073418;28;20170;-75
2023/05/14 01:30:19;;;;;;;9.20;8.40;;;9.60;1.00;;;;;;5074019;28;20162;-74
2023/05/14 01:32:50;;;;;;;9.13;8.33;;;9.60;1.00;;;;;;5071998;28;20875;-74
2023/05/14 01:35:17;;;;;;;10.03;9.10;;;9.60;1.00;;;;;;5072775;28;20417;-74
2023/05/14 01:37:44;;;;;;;9.93;8.97;;;9.60;1.00;;;;;;5072882;28;20394;-72
2023/05/14 01:40:10;;;;;;;8.70;7.83;;;9.60;1.00;;;;;;5072190;28;20412;-71
2023/05/14 01:42:37;;;;;;;8.77;8.00;;;9.60;1.00;;;;;;5073329;28;20440;-71
2023/05/14 01:45:04;;;;;;;8.33;7.50;;;9.60;1.00;;;;;;5072700;28;20451;-74
2023/05/14 01:47:29;;;;;;;11.90;8.53;;;9.60;1.00;;;;;;5072734;28;20377;-74
2023/05/14 01:49:55;;;;;;;9.40;8.60;;;9.60;1.00;;;;;;5072209;28;20396;-72
2023/05/14 01:52:21;;;;;;;7.90;7.27;;;9.70;1.00;;;;;;5071425;28;20190;-74
2023/05/14 01:54:47;;;;;;;9.00;8.20;;;9.70;1.00;;;;;;5072740;28;20174;-75
2023/05/14 01:57:13;;;;;;;8.93;8.10;;;9.70;1.00;;;;;;5072618;28;20531;-72
2023/05/14 01:59:38;;;;;;;8.63;8.00;;;9.70;1.00;;;;;;5072881;28;20403;-71
2023/05/14 02:02:04;;;;;;;10.03;9.13;;;9.80;1.00;;;;;;5071690;28;20173;-74
2023/05/14 02:04:30;;;;;;;10.20;8.17;;;9.80;1.00;;;;;;5072558;28;20715;-71
2023/05/14 02:06:55;;;;;;;8.20;7.50;;;9.80;1.00;;;;;;5088559;28;20170;-74
2023/05/14 02:09:21;;;;;;;10.10;9.20;;;9.80;1.00;;;;;;5096633;28;20161;-74
2023/05/14 02:11:47;;;;;;;9.90;9.00;;;9.80;1.00;;;;;;5094734;28;20198;-72
2023/05/14 02:14:14;;;;;;;8.83;8.13;;;9.90;1.00;;;;;;5095563;28;20201;-74
2023/05/14 02:16:40;;;;;;;9.23;7.43;;;9.80;1.00;;;;;;5092135;28;20177;-71
2023/05/14 02:19:06;;;;;;;9.00;8.10;;;9.90;1.00;;;;;;5076314;28;20871;-72
2023/05/14 02:21:31;;;;;;;8.37;7.70;;;9.80;1.00;;;;;;5075084;28;20394;-74
2023/05/14 02:23:57;;;;;;;8.90;7.80;;;9.90;1.00;;;;;;5075884;28;20621;-74
2023/05/14 02:26:23;;;;;;;8.50;7.80;;;9.90;1.00;;;;;;5076151;28;20245;-75
2023/05/14 02:28:48;;;;;;;8.20;7.40;;;9.90;1.00;;;;;;5075989;28;20170;-74
2023/05/14 02:31:16;;;;;;;9.33;8.43;;;9.90;1.00;;;;;;5074330;28;20166;-74
2023/05/14 02:33:41;;;;;;;11.17;8.10;;;9.90;1.00;;;;;;5076430;28;20221;-75
2023/05/14 02:36:07;;;;;;;9.57;7.73;;;9.90;1.00;;;;;;5075918;28;20442;-71
2023/05/14 02:38:33;;;;;;;9.80;9.00;;;9.90;1.00;;;;;;5075928;28;20703;-74
2023/05/14 02:40:59;;;;;;;9.67;8.27;;;9.90;1.00;;;;;;5075019;28;20372;-69
2023/05/14 02:43:24;;;;;;;8.73;7.93;;;9.90;1.00;;;;;;5075513;28;20190;-69
2023/05/14 02:45:50;;;;;;;9.00;8.17;;;9.90;1.00;;;;;;5075607;28;20170;-69
2023/05/14 02:48:16;;;;;;;8.10;7.50;;;10.00;1.00;;;;;;5074817;28;20209;-74
2023/05/14 02:50:44;;;;;;;8.80;8.10;;;10.00;1.00;;;;;;5075399;28;20174;-71
2023/05/14 02:53:10;;;;;;;8.27;7.57;;;10.00;1.00;;;;;;5075614;28;20194;-72
2023/05/14 02:55:36;;;;;;;9.10;8.27;;;9.90;1.00;;;;;;5075683;28;20424;-70
2023/05/14 02:58:01;;;;;;;7.93;7.27;;;10.00;1.00;;;;;;5075411;28;20749;-70
2023/05/14 03:00:27;;;;;;;9.60;8.03;;;10.00;1.00;;;;;;5074551;28;20458;-69
2023/05/14 03:02:53;;;;;;;8.37;7.57;;;10.00;1.00;;;;;;5075508;28;20666;-69
2023/05/14 03:05:19;;;;;;;11.17;9.07;;;10.00;1.00;;;;;;5075350;28;20209;-69
2023/05/14 03:07:44;;;;;;;17.83;8.90;;;10.00;1.00;;;;;;5089820;28;20162;-73
2023/05/14 03:10:10;;;;;;;9.73;8.23;;;10.00;1.00;;;;;;5074396;28;20162;-72
2023/05/14 03:12:35;;;;;;;9.30;8.50;;;10.00;1.00;;;;;;5073924;28;20277;-73
2023/05/14 03:15:01;;;;;;;8.77;8.07;;;10.00;1.00;;;;;;5075330;28;20528;-72
2023/05/14 03:17:27;;;;;;;8.93;8.17;;;10.00;1.00;;;;;;5073582;28;20200;-72
2023/05/14 03:19:52;;;;;;;10.20;8.40;;;10.00;1.00;;;;;;5074979;28;20181;-73
2023/05/14 03:22:18;;;;;;;8.43;7.63;;;10.00;1.00;;;;;;5074331;28;20597;-71
2023/05/14 03:24:44;;;;;;;9.60;8.70;;;10.00;1.00;;;;;;5074574;28;20213;-73
2023/05/14 03:27:09;;;;;;;9.07;8.30;;;10.00;1.00;;;;;;5074970;28;20208;-74
2023/05/14 03:29:35;;;;;;;8.17;7.57;;;10.00;1.00;;;;;;5075089;28;20201;-71
2023/05/14 03:32:01;;;;;;;8.97;8.07;;;10.00;1.00;;;;;;5073877;28;20166;-74
2023/05/14 03:34:26;;;;;;;8.80;8.10;;;10.00;1.00;;;;;;5074802;28;20259;-71
2023/05/14 03:36:52;;;;;;;8.50;7.70;;;10.00;1.00;;;;;;5075011;28;20176;-74
2023/05/14 03:39:18;;;;;;;8.60;7.80;;;10.10;1.00;;;;;;5074841;28;20170;-74
2023/05/14 03:41:45;;;;;;;8.50;7.67;;;10.10;6.30;;;;;;5074217;28;20678;-73
2023/05/14 03:44:11;;;;;;;8.67;7.87;;;10.10;9.50;;;;;;5073767;28;20456;-69
2023/05/14 03:46:37;;;;;;;8.67;7.97;;;10.10;11.70;;;;;;5074538;28;21031;-69
2023/05/14 03:49:03;;;;;;;14.93;8.47;;;10.10;12.30;;;;;;5073552;28;20421;-73
2023/05/14 03:51:28;;;;;;;10.23;8.30;;;10.10;18.60;;;;;;5073702;28;20500;-69
2023/05/14 03:53:54;;;;;;;11.37;8.57;;;10.20;23.10;;;;;;5074298;28;20194;-72
2023/05/14 03:56:21;;;;;;;9.30;8.50;;;10.20;30.00;;;;;;5074456;28;20169;-70
2023/05/14 03:58:47;;;;;;;16.10;8.37;;;10.20;25.10;;;;;;5074965;28;20170;-72
2023/05/14 04:01:14;;;;;;;7.17;6.67;;;10.20;29.50;;;;;;5072949;28;20800;-70
2023/05/14 04:03:40;;;;;;;8.10;7.50;;;10.30;31.50;;;;;;5073869;28;20202;-72
2023/05/14 04:06:06;;;;;;;9.37;8.37;;;10.30;34.10;;;;;;5080737;28;20380;-69
2023/05/14 04:08:31;;;;;;;8.90;8.10;;;10.30;43.70;;;;;;5094356;28;20621;-73
2023/05/14 04:10:57;;;;;;;9.60;8.80;;;10.40;54.50;;;;;;5093674;28;20518;-72
2023/05/14 04:13:23;;;;;;;9.50;8.60;;;10.40;56.00;;;;;;5094318;28;20758;-70
2023/05/14 04:15:48;;;;;;;9.13;8.23;;;10.40;64.40;;;;;;5086976;28;20174;-70
2023/05/14 04:18:14;;;;;;;8.93;8.10;;;10.40;62.00;;;;;;5074119;28;20248;-73
2023/05/14 04:20:40;;;;;;;8.63;7.90;;;10.50;68.50;;;;;;5071915;28;20849;-71
2023/05/14 04:23:06;;;;;;;10.50;8.47;;;10.50;74.30;;;;;;5073660;28;20421;-72
2023/05/14 04:25:31;;;;;;;9.60;8.70;;;10.60;77.80;;;;;;5073841;28;20186;-70
2023/05/14 04:27:57;;;;;;;22.03;19.47;;;10.60;91.20;;;;;;5073627;28;20170;-69
2023/05/14 04:30:23;;;;;;;31.97;20.43;;;10.60;92.20;;;;;;5072432;28;20164;-72
2023/05/14 04:32:49;;;;;;;13.10;11.87;;;10.70;92.30;;;;;;5074209;28;20197;-69
2023/05/14 04:35:14;;;;;;;9.10;8.27;;;10.70;92.30;;;;;;5073691;28;20182;-69
2023/05/14 04:37:40;;;;;;;9.33;8.40;;;10.80;92.30;;;;;;5072903;28;20535;-71
2023/05/14 04:40:09;;;;;;;9.70;8.67;;;10.80;92.40;;;;;;5072695;28;20537;-72
2023/05/14 04:42:35;;;;;;;8.97;8.07;;;10.90;94.40;;;;;;5073433;28;20209;-70
2023/05/14 04:45:01;;;;;;;9.00;8.13;;;11.00;97.30;;;;;;5073396;28;20452;-71
2023/05/14 04:47:27;;;;;;;9.37;7.73;;;11.00;97.30;;;;;;5086616;28;20382;-73
2023/05/14 04:49:53;;;;;;;8.27;7.47;;;11.10;99.90;;;;;;5087234;28;20519;-74
2023/05/14 04:52:18;;;;;;;16.47;14.73;;;11.10;99.90;;;;;;5072699;28;20701;-70
2023/05/14 04:54:44;;;;;;;28.37;19.87;;;11.20;99.90;;;;;;5072176;28;20646;-72
2023/05/14 04:57:10;;;;;;;13.07;10.20;;;11.20;99.90;;;;;;5072280;28;20174;-70
2023/05/14 04:59:35;;;;;;;8.87;8.17;;;11.30;99.90;;;;;;5072372;28;20182;-72
2023/05/14 05:02:01;;;;;;;8.33;7.43;;;11.40;99.90;;;;;;5072275;28;20171;-72
2023/05/14 05:04:27;;;;;;;9.10;8.20;;;11.50;99.90;;;;;;5073186;28;20189;-70
2023/05/14 05:06:52;;;;;;;10.53;9.10;;;11.60;99.90;;;;;;5079979;28;20206;-68
2023/05/14 05:09:18;;;;;;;8.00;7.40;;;11.70;99.90;;;;;;5073130;28;20591;-67
2023/05/14 05:11:44;;;;;;;8.30;7.70;;;11.80;99.90;;;;;;5071893;28;20198;-68
2023/05/14 05:14:09;;;;;;;7.93;7.00;;;11.90;99.90;;;;;;5072681;28;20269;-70
2023/05/14 05:16:35;;;;;;;8.77;7.90;;;12.00;99.90;;;;;;5073172;28;20248;-70
2023/05/14 05:19:01;;;;;;;8.90;8.10;;;12.10;99.90;;;;;;5073090;28;20170;-70
2023/05/14 05:21:27;;;;;;;9.37;8.40;;;12.20;97.90;;;;;;5072085;28;20391;-70
2023/05/14 05:23:52;;;;;;;12.13;7.40;;;12.30;92.90;;;;;;5073506;28;20210;-70
2023/05/14 05:26:18;;;;;;;8.97;8.13;;;12.50;93.00;;;;;;5073103;28;20166;-70
2023/05/14 05:28:44;;;;;;;8.37;7.63;;;12.60;77.00;;;;;;5072934;28;20720;-67
2023/05/14 05:31:09;;;;;;;12.13;8.27;;;12.70;60.80;;;;;;5071980;28;20582;-70
2023/05/14 05:33:35;;;;;;;8.23;7.57;;;12.80;48.60;;;;;;5071920;28;20559;-71
2023/05/14 05:36:01;;;;;;;8.00;7.27;;;12.90;34.10;;;;;;5072855;28;20178;-69
2023/05/14 05:38:26;;;;;;;8.30;7.60;;;13.10;30.60;;;;;;5072808;28;20241;-69
2023/05/14 05:40:52;;;;;;;7.13;6.67;;;13.10;31.50;;;;;;5075210;28;20631;-70
2023/05/14 05:43:18;;;;;;;8.73;7.60;;;13.20;38.10;;;;;;5076632;28;20189;-70
2023/05/14 05:45:44;;;;;;;7.53;6.80;;;13.20;47.00;;;;;;5076948;28;20245;-70
2023/05/14 05:48:10;;;;;;;8.33;7.60;;;13.30;37.30;;;;;;5076928;28;20158;-68
2023/05/14 05:50:36;;;;;;;7.70;6.90;;;13.30;17.30;;;;;;5075717;28;20893;-66
2023/05/14 05:53:02;;;;;;;9.60;8.70;;;13.50;7.80;;;;;;5075807;28;20650;-67
2023/05/14 05:55:29;;;;;;;7.53;6.83;;;13.60;1.00;;;;;;5076709;28;20177;-69
2023/05/14 05:57:55;;;;;;;7.63;6.90;;;13.60;1.00;;;;;;5077323;28;20864;-68
2023/05/14 06:00:21;;;;;;;25.80;8.27;;;13.70;1.00;;;;;;5075857;28;20409;-69
2023/05/14 06:02:46;;;;;;;7.90;7.07;;;13.80;1.00;;;;;;5080212;28;20458;-66
2023/05/14 06:05:12;;;;;;;7.90;6.70;;;13.90;1.00;;;;;;5088543;28;20562;-67
2023/05/14 06:07:38;;;;;;;8.60;7.80;;;13.90;1.00;;;;;;5086885;28;20206;-65
2023/05/14 06:10:05;;;;;;;7.43;6.80;;;13.90;1.00;;;;;;5074925;28;20212;-71
2023/05/14 06:12:30;;;;;;;11.50;7.23;;;13.90;1.00;;;;;;5076061;28;20190;-65
2023/05/14 06:14:56;;;;;;;7.53;6.93;;;14.00;1.00;;;;;;5078694;28;20435;-68
2023/05/14 06:17:23;;;;;;;7.63;6.83;;;14.10;1.00;;;;;;5085388;28;20246;-68
2023/05/14 06:19:50;;;;;;;6.97;6.47;;;14.10;1.00;;;;;;5096348;28;20248;-69
2023/05/14 06:22:15;;;;;;;7.63;6.93;;;14.20;1.00;;;;;;5095748;28;20395;-66
2023/05/14 06:24:41;;;;;;;7.20;6.60;;;14.30;1.00;;;;;;5096231;28;20489;-66
2023/05/14 06:27:07;;;;;;;6.90;6.30;;;14.40;1.00;;;;;;5096132;28;20166;-68
2023/05/14 06:29:32;;;;;;;8.00;7.27;;;14.60;1.00;;;;;;5094764;28;20177;-70
2023/05/14 06:32:02;;;;;;;8.70;7.20;;;14.70;1.00;;;;;;5095260;28;20181;-67
2023/05/14 06:34:28;;;;;;;8.33;7.17;;;14.80;1.00;;;;;;5096200;28;20704;-68
2023/05/14 06:36:54;;;;;;;8.30;7.50;;;14.90;1.00;;;;;;5096292;28;20474;-67
2023/05/14 06:39:19;;;;;;;8.63;6.60;;;15.00;1.00;;;;;;5084534;28;20519;-66
2023/05/14 06:41:45;;;;;;;7.80;7.07;;;15.10;1.00;;;;;;5074303;28;20651;-70
2023/05/14 06:44:11;;;;;;;7.83;7.17;;;15.20;1.00;;;;;;5075903;28;20194;-68
2023/05/14 06:46:36;;;;;;;10.23;6.90;;;15.30;1.00;;;;;;5075408;28;20264;-67
2023/05/14 06:49:02;;;;;;;7.63;6.93;;;15.40;1.00;;;;;;5075149;28;20166;-68
2023/05/14 06:51:28;;;;;;;7.40;6.80;;;15.50;1.00;;;;;;5073933;28;20520;-68
2023/05/14 06:53:54;;;;;;;7.00;6.50;;;15.60;1.00;;;;;;5083880;28;20193;-68
2023/05/14 06:56:21;;;;;;;9.23;6.07;;;15.80;1.00;;;;;;5095979;28;20170;-66
2023/05/14 06:58:47;;;;;;;7.10;6.53;;;15.90;1.00;;;;;;5095780;28;20404;-67
2023/05/14 07:01:15;;;;;;;6.50;6.00;;;15.90;1.00;;;;;;5088124;28;20432;-66
2023/05/14 07:03:41;;;;;;;6.60;6.10;;;16.10;1.00;;;;;;5073913;28;20237;-68
2023/05/14 07:06:07;;;;;;;7.77;6.10;;;16.20;1.00;;;;;;5072998;28;20956;-70
2023/05/14 07:08:33;;;;;;;7.10;6.60;;;16.30;1.00;;;;;;5075341;28;20519;-68
2023/05/14 07:10:58;;;;;;;6.40;5.90;;;16.30;1.00;;;;;;5074608;28;20163;-70
2023/05/14 07:13:27;;;;;;;6.77;6.17;;;16.40;1.00;;;;;;5075105;28;20605;-68
2023/05/14 07:15:54;;;;;;;12.37;6.50;;;16.50;1.00;;;;;;5074682;28;20165;-69
2023/05/14 07:18:21;;;;;;;13.20;7.93;;;16.60;1.00;;;;;;5076009;28;20507;-69
2023/05/14 07:20:47;;;;;;;5.83;5.40;;;16.80;1.00;;;;;;5074235;28;20397;-67
2023/05/14 07:23:12;;;;;;;8.63;5.57;;;16.90;1.00;;;;;;5074854;28;20447;-69
2023/05/14 07:25:38;;;;;;;7.07;6.30;;;17.00;1.00;;;;;;5074221;28;20198;-67
2023/05/14 07:28:04;;;;;;;7.93;5.60;;;17.10;1.00;;;;;;5074936;28;20197;-67
2023/05/14 07:30:29;;;;;;;6.13;5.70;;;17.20;1.00;;;;;;5082714;28;20174;-69
2023/05/14 07:32:55;;;;;;;6.60;5.60;;;17.20;1.00;;;;;;5095109;28;20658;-67
2023/05/14 07:35:21;;;;;;;5.47;5.07;;;17.30;1.00;;;;;;5094989;28;20166;-69
2023/05/14 07:37:47;;;;;;;6.90;6.20;;;17.40;1.00;;;;;;5093548;28;20170;-69
2023/05/14 07:40:13;;;;;;;8.40;6.10;;;17.50;1.00;;;;;;5093991;28;20503;-67
2023/05/14 07:42:39;;;;;;;6.13;5.53;;;17.70;1.00;;;;;;5094264;28;20222;-70
2023/05/14 07:45:05;;;;;;;10.90;6.47;;;17.70;1.00;;;;;;5093504;28;20201;-69
2023/05/14 07:47:31;;;;;;;7.90;5.63;;;17.80;1.00;;;;;;5094911;28;20178;-68
2023/05/14 07:49:58;;;;;;;5.90;5.40;;;17.90;1.00;;;;;;5094479;28;20408;-69
2023/05/14 07:52:24;;;;;;;7.30;5.73;;;18.00;99.90;;;;;;5093916;28;20426;-69
2023/05/14 07:54:50;;;;;;;6.40;5.80;;;18.10;99.90;;;;;;5094735;28;20407;-70
2023/05/14 07:57:16;;;;;;;5.27;4.87;;;18.10;99.90;;;;;;5094692;28;20193;-69
2023/05/14 07:59:42;;;;;;;5.23;4.70;;;18.30;99.90;;;;;;5093942;28;20461;-70
2023/05/14 08:02:09;;;;;;;9.27;5.50;;;18.40;99.90;;;;;;5092567;28;20400;-69
2023/05/14 08:04:35;;;;;;;6.33;5.63;;;18.50;99.90;;;;;;5093183;28;20189;-68
2023/05/14 08:07:01;;;;;;;7.13;5.33;;;18.60;99.90;;;;;;5094506;28;20396;-69
2023/05/14 08:09:26;;;;;;;7.53;6.73;;;18.70;99.90;;;;;;5094210;28;20635;-70
2023/05/14 08:11:52;;;;;;;5.27;4.87;;;18.80;99.90;;;;;;5093346;28;20162;-70
2023/05/14 08:14:18;;;;;;;7.03;4.73;;;18.90;99.90;;;;;;5075216;28;20198;-70
2023/05/14 08:16:43;;;;;;;5.33;4.80;;;19.00;99.90;;;;;;5086220;28;20192;-68
2023/05/14 08:19:09;;;;;;;7.20;5.73;;;19.00;99.90;;;;;;5092924;28;20570;-69
2023/05/14 08:21:35;;;;;;;5.83;5.33;;;19.10;99.90;;;;;;5092637;28;20169;-68
2023/05/14 08:24:00;;;;;;;5.47;5.07;;;19.20;99.90;;;;;;5093698;28;20558;-68
2023/05/14 08:26:26;;;;;;;5.53;5.10;;;19.30;99.90;;;;;;5093975;28;20169;-68
2023/05/14 08:28:53;;;;;;;5.50;4.83;;;19.40;99.90;;;;;;5093683;28;20177;-68
2023/05/14 08:31:19;;;;;;;6.10;5.43;;;19.50;99.90;;;;;;5093060;28;20199;-69
2023/05/14 08:33:44;;;;;;;10.50;5.10;;;19.50;99.90;;;;;;5093922;28;20796;-69
2023/05/14 08:36:10;;;;;;;5.90;5.30;;;19.70;99.90;;;;;;5093984;28;20581;-70
2023/05/14 08:38:36;;;;;;;6.10;5.03;;;19.80;99.90;;;;;;5093767;28;20165;-68
2023/05/14 08:41:04;;;;;;;6.63;5.03;;;20.00;99.90;;;;;;5091179;28;20185;-70
2023/05/14 08:43:52;;;;;;;5.43;4.83;;;20.10;99.90;;;;;;5093482;28;20194;-70
2023/05/14 08:46:22;;;;;;;10.23;4.60;;;20.20;99.90;;;;;;5093852;28;20476;-70
2023/05/14 08:48:56;;;;;;;5.50;5.00;;;20.30;99.90;;;;;;5093676;28;20396;-69
2023/05/14 08:51:22;;;;;;;5.93;5.43;;;20.40;99.90;;;;;;5092750;28;20749;-70
2023/05/14 08:53:48;;;;;;;5.97;4.30;;;20.60;99.90;;;;;;5093535;28;20449;-69
2023/05/14 08:56:17;;;;;;;5.73;5.20;;;20.80;99.90;;;;;;5092821;28;20838;-69
2023/05/14 08:58:42;;;;;;;5.90;4.63;;;20.90;99.90;;;;;;5092180;28;20166;-68
2023/05/14 09:01:08;;;;;;;4.90;4.40;;;21.00;99.90;;;;;;5091566;28;20950;-69
2023/05/14 09:03:35;;;;;;;6.33;5.30;;;21.10;99.90;;;;;;5093384;28;20243;-71
2023/05/14 09:06:01;;;;;;;5.73;5.27;;;21.20;99.90;;;;;;5093388;28;20395;-70
2023/05/14 09:08:28;;;;;;;6.40;5.80;;;21.40;99.90;;;;;;5089939;28;20399;-71
2023/05/14 09:10:53;;;;;;;5.20;4.80;;;21.60;99.90;;;;;;5071204;28;20409;-71
2023/05/14 09:13:19;;;;;;;5.40;5.00;;;21.90;99.90;;;;;;5073042;28;20416;-71
2023/05/14 09:15:46;;;;;;;5.37;4.97;;;22.00;99.90;;;;;;5071443;28;20218;-71
2023/05/14 09:18:12;;;;;;;5.37;4.87;;;21.90;99.90;;;;;;5073117;28;20197;-69
2023/05/14 09:20:38;;;;;;;4.93;4.53;;;21.80;99.90;;;;;;5071309;28;20894;-70
2023/05/14 09:23:04;;;;;;;5.50;5.03;;;21.80;99.90;;;;;;5073286;28;20205;-69
2023/05/14 09:25:31;;;;;;;7.73;6.90;;;21.80;99.90;;;;;;5093111;28;20746;-70
2023/05/14 09:27:57;;;;;;;5.93;5.43;;;21.70;99.90;;;;;;5093234;28;20392;-71
2023/05/14 09:30:25;;;;;;;5.90;5.40;;;21.80;99.90;;;;;;5092268;28;20172;-72
2023/05/14 09:32:53;;;;;;;6.10;5.60;;;22.10;99.90;;;;;;5091837;28;20186;-71
2023/05/14 09:35:22;;;;;;;5.37;4.97;;;22.60;99.90;;;;;;5091624;28;20455;-70
2023/05/14 09:37:56;;;;;;;5.47;5.03;;;22.80;99.90;;;;;;5091477;28;20499;-70
2023/05/14 09:40:23;;;;;;;5.43;4.87;;;23.00;99.90;;;;;;5092246;28;20434;-73
2023/05/14 09:42:49;;;;;;;7.27;4.80;;;23.40;99.90;;;;;;5093064;28;20431;-73
2023/05/14 09:45:15;;;;;;;6.30;5.80;;;23.70;99.90;;;;;;5092901;28;20451;-73
2023/05/14 09:47:43;;;;;;;7.60;6.70;;;23.70;99.90;;;;;;5093154;28;20478;-73
2023/05/14 09:50:09;;;;;;;8.13;7.13;;;23.80;99.90;;;;;;5092129;28;20445;-74
2023/05/14 09:52:36;;;;;;;8.33;7.60;;;24.20;99.90;;;;;;5078510;28;20452;-74
2023/05/14 09:55:01;;;;;;;6.03;5.40;;;24.70;99.90;;;;;;5070617;28;20204;-73
2023/05/14 09:57:27;;;;;;;5.30;5.00;;;25.20;99.90;;;;;;5071509;28;20882;-73
2023/05/14 09:59:53;;;;;;;4.90;4.47;;;25.50;99.90;;;;;;5072443;28;20173;-75
2023/05/14 10:02:23;;;;;;;4.70;4.30;;;25.70;99.90;;;;;;5072090;28;20424;-73
2023/05/14 10:04:50;;;;;;;5.00;3.90;;;25.80;99.90;;;;;;5072609;28;20316;-74
2023/05/14 10:07:20;;;;;;;5.47;5.07;;;25.90;99.90;;;;;;5071888;28;20432;-73
2023/05/14 10:09:46;;;;;;;4.20;3.90;;;26.10;99.90;;;;;;5071554;28;20897;-73
2023/05/14 10:12:15;;;;;;;4.87;4.47;;;26.10;99.90;;;;;;5071480;28;20405;-74
2023/05/14 10:14:48;;;;;;;3.90;3.47;;;26.20;99.90;;;;;;5071883;28;20731;-73
2023/05/14 10:17:17;;;;;;;4.10;3.80;;;26.20;99.90;;;;;;5072462;28;20885;-74
2023/05/14 10:19:49;;;;;;;4.13;3.73;;;26.20;99.90;;;;;;5071843;28;20920;-73
2023/05/14 10:22:21;;;;;;;10.33;6.63;;;26.40;99.90;;;;;;5071776;28;20400;-74
2023/05/14 10:24:51;;;;;;;5.20;3.90;;;26.60;99.90;;;;;;5072310;28;20456;-73
2023/05/14 10:27:19;;;;;;;7.57;5.23;;;26.90;99.90;;;;;;5073667;28;20454;-72
2023/05/14 10:29:53;;;;;;;9.57;5.53;;;27.20;99.90;;;;;;5076046;28;20495;-72
2023/05/14 10:32:24;;;;;;;4.50;4.10;;;27.30;99.90;;;;;;5074594;28;20420;-70
2023/05/14 10:34:53;;;;;;;4.73;3.60;;;27.20;99.90;;;;;;5084792;28;20879;-70
2023/05/14 10:37:24;;;;;;;6.77;5.13;;;27.10;99.90;;;;;;5096281;28;20883;-73
2023/05/14 10:39:57;;;;;;;4.50;4.10;;;27.10;99.90;;;;;;5094873;28;20527;-73
2023/05/14 10:42:39;;;;;;;4.80;4.40;;;27.00;99.90;;;;;;5095380;28;20430;-74
2023/05/14 10:45:07;;;;;;;4.27;3.87;;;26.90;99.90;;;;;;5096073;28;20447;-74
2023/05/14 10:47:41;;;;;;;6.90;3.70;;;26.80;99.90;;;;;;5090585;28;20435;-73
2023/05/14 10:50:12;;;;;;;4.93;3.83;;;26.40;99.90;;;;;;5074055;28;20469;-75
2023/05/14 10:52:42;;;;;;;3.63;3.43;;;26.30;99.90;;;;;;5075460;28;20416;-75
2023/05/14 10:55:13;;;;;;;8.57;6.73;;;26.40;99.90;;;;;;5075737;28;20397;-74
2023/05/14 10:57:42;;;;;;;6.73;3.90;;;26.60;99.90;;;;;;5075707;28;20543;-74
2023/05/14 11:00:09;;;;;;;6.83;4.70;;;26.80;99.90;;;;;;5074729;28;20491;-75
2023/05/14 11:02:37;;;;;;;6.10;5.50;;;27.00;99.90;;;;;;5074864;28;20460;-73
2023/05/14 11:05:07;;;;;;;7.60;6.80;;;26.90;99.90;;;;;;5075443;28;20473;-73
2023/05/14 11:07:55;;;;;;;6.23;5.63;;;27.20;99.90;;;;;;5073581;28;20473;-74
2023/05/14 11:10:21;;;;;;;7.13;3.53;;;27.40;99.90;;;;;;5074312;28;20417;-74
2023/05/14 11:12:49;;;;;;;3.80;3.50;;;27.30;99.90;;;;;;5075310;28;20431;-74
2023/05/14 11:15:17;;;;;;;3.97;2.90;;;27.40;99.90;;;;;;5074801;28;20800;-73
2023/05/14 11:17:44;;;;;;;3.93;3.53;;;27.50;99.90;;;;;;5074681;28;20408;-74
2023/05/14 11:20:11;;;;;;;12.20;4.03;;;27.70;99.90;;;;;;5074330;28;20400;-75
2023/05/14 11:22:38;;;;;;;3.80;3.50;;;27.90;99.90;;;;;;5074966;28;20428;-73
2023/05/14 11:25:05;;;;;;;3.97;3.50;;;28.30;99.90;;;;;;5074913;28;20527;-74
2023/05/14 11:27:33;;;;;;;6.50;3.00;;;28.40;99.90;;;;;;5074018;28;20400;-75
2023/05/14 11:30:02;;;;;;;4.80;3.53;;;28.70;99.90;;;;;;5074554;28;20412;-74
2023/05/14 11:32:31;;;;;;;4.10;3.60;;;29.10;99.90;;;;;;5094305;28;20415;-74
2023/05/14 11:34:56;;;;;;;5.60;3.33;;;29.20;99.90;;;;;;5094034;28;20961;-73
2023/05/14 11:37:22;;;;;;;4.13;3.83;;;29.50;99.90;;;;;;5093765;28;20412;-74
2023/05/14 11:39:50;;;;;;;4.50;3.90;;;29.60;99.90;;;;;;5094671;28;20186;-75
2023/05/14 11:42:17;;;;;;;3.37;3.10;;;29.70;99.90;;;;;;5094065;28;20194;-73
2023/05/14 11:44:50;;;;;;;3.63;3.43;;;29.40;99.90;;;;;;5093573;28;20455;-73
2023/05/14 11:47:17;;;;;;;3.50;3.30;;;28.90;99.90;;;;;;5093962;28;20376;-74
2023/05/14 11:49:44;;;;;;;4.00;3.60;;;28.40;99.90;;;;;;5093407;28;20438;-73
2023/05/14 11:52:15;;;;;;;3.30;2.93;;;27.70;99.90;;;;;;5092579;28;20510;-73
2023/05/14 11:54:44;;;;;;;4.80;3.50;;;27.20;99.90;;;;;;5094404;28;20820;-73
2023/05/14 11:57:20;;;;;;;5.23;3.83;;;26.80;99.90;;;;;;5093106;28;20427;-74
2023/05/14 11:59:48;;;;;;;5.00;3.43;;;26.70;99.90;;;;;;5094334;28;20455;-74
2023/05/14 12:02:16;;;;;;;4.70;3.50;;;26.70;99.90;;;;;;5093790;28;20486;-73
2023/05/14 12:04:42;;;;;;;3.93;3.17;;;26.50;99.90;;;;;;5094191;28;20491;-74
2023/05/14 12:07:14;;;;;;;3.83;3.53;;;26.30;99.90;;;;;;5077660;28;20436;-74
2023/05/14 12:09:48;;;;;;;7.83;3.83;;;25.70;99.90;;;;;;5074287;28;20483;-73
2023/05/14 12:12:16;;;;;;;3.97;3.63;;;25.30;99.90;;;;;;5072739;28;20435;-73
2023/05/14 12:14:42;;;;;;;10.53;4.47;;;25.10;99.90;;;;;;5073949;28;20436;-74
2023/05/14 12:17:17;;;;;;;4.03;3.67;;;24.70;99.90;;;;;;5074008;28;20407;-74
2023/05/14 12:19:44;;;;;;;4.67;4.10;;;24.70;99.90;;;;;;5074031;28;20406;-74
2023/05/14 12:22:12;;;;;;;3.77;3.47;;;24.90;99.90;;;;;;5073009;28;20415;-73
2023/05/14 12:24:38;;;;;;;6.33;4.40;;;25.50;99.90;;;;;;5071667;28;20464;-74
2023/05/14 12:27:05;;;;;;;5.27;3.87;;;26.60;99.90;;;;;;5074966;28;20921;-74
2023/05/14 12:29:35;;;;;;;8.53;6.60;;;27.30;99.90;;;;;;5073929;28;20197;-73
2023/05/14 12:32:03;;;;;;;6.10;4.20;;;27.30;99.90;;;;;;5082545;28;20489;-73
2023/05/14 12:34:29;;;;;;;4.13;3.73;;;27.00;99.90;;;;;;5094120;28;20407;-74
2023/05/14 12:36:54;;;;;;;19.07;3.80;;;26.70;99.90;;;;;;5094109;28;20741;-69
2023/05/14 12:39:20;;;;;;;3.40;3.20;;;26.30;99.90;;;;;;5082705;28;20589;-68
2023/05/14 12:41:46;;;;;;;7.10;4.70;;;26.30;99.90;;;;;;5080961;28;20251;-70
2023/05/14 12:44:11;;;;;;;5.60;4.53;;;26.60;99.90;;;;;;5073517;28;20213;-65
2023/05/14 12:46:37;;;;;;;4.30;3.80;;;26.90;99.90;;;;;;5073381;28;20524;-69
2023/05/14 12:49:03;;;;;;;4.23;3.60;;;27.40;99.90;;;;;;5072294;28;20174;-67